Time;durP1;ratioP1;P1;durP2;ratioP2;P2;SDS_P1;SDS_P2;PMS_P1;PMS_P2;Temp;Humidity;BMP_temperature;BMP_pressure;BME280_temperature;BME280_humidity;BME280_pressure;Samples;Min_cycle;Max_cycle;Signal;HPM_P1;HPM_P2
2021/12/15 00:00:04;;;;;;;;;;;8.00;99.90;;;;;;5034836;28;19905;-70
2021/12/15 00:02:29;;;;;;;;;;;8.00;99.90;;;;;;5034203;28;19913;-70
2021/12/15 00:04:56;;;;;;;;;;;8.00;99.90;;;;;;5034477;28;19909;-70
2021/12/15 00:07:22;;;;;;;;;;;8.00;99.90;;;;;;5034494;28;19952;-70
2021/12/15 00:09:48;;;;;;;;;;;8.00;99.90;;;;;;5034827;28;19909;-70
2021/12/15 00:12:14;;;;;;;;;;;8.00;99.90;;;;;;5037827;28;19913;-70
2021/12/15 00:14:40;;;;;;;;;;;8.00;99.90;;;;;;5034246;28;19916;-69
2021/12/15 00:17:05;;;;;;;;;;;8.00;99.90;;;;;;5034863;28;19905;-69
2021/12/15 00:19:31;;;;;;;;;;;8.10;99.90;;;;;;5034827;28;19959;-70
2021/12/15 00:21:57;;;;;;;;;;;8.10;99.90;;;;;;5034144;28;19971;-70
2021/12/15 00:24:22;;;;;;;;;;;8.00;99.90;;;;;;5034230;28;19917;-70
2021/12/15 00:26:48;;;;;;;;;;;8.10;99.90;;;;;;5035057;28;19948;-70
2021/12/15 00:29:13;;;;;;;;;;;8.10;99.90;;;;;;5033580;28;19909;-70
2021/12/15 00:31:39;;;;;;;;;;;8.10;99.90;;;;;;5034236;28;19928;-70
2021/12/15 00:34:07;;;;;;;;;;;8.10;99.90;;;;;;5034080;28;20083;-70
2021/12/15 00:36:32;;;;;;;;;;;8.10;99.90;;;;;;5034376;28;20353;-70
2021/12/15 00:38:58;;;;;;;;;;;8.10;99.90;;;;;;5033495;28;19913;-69
2021/12/15 00:41:23;;;;;;;;;;;8.10;99.90;;;;;;5033844;28;19909;-69
2021/12/15 00:43:49;;;;;;;;;;;8.20;99.90;;;;;;5034172;28;20332;-70
2021/12/15 00:46:15;;;;;;;;;;;8.20;99.90;;;;;;5034086;28;20391;-70
2021/12/15 00:48:41;;;;;;;;;;;8.10;99.90;;;;;;5037147;28;20003;-69
2021/12/15 00:51:07;;;;;;;;;;;8.20;99.90;;;;;;5042932;28;19948;-70
2021/12/15 00:53:32;;;;;;;;;;;8.20;99.90;;;;;;5044201;28;19956;-69
2021/12/15 00:55:58;;;;;;;;;;;8.20;99.90;;;;;;5033742;28;19916;-70
2021/12/15 00:58:23;;;;;;;;;;;8.20;99.90;;;;;;5033748;28;19963;-70
2021/12/15 01:00:51;;;;;;;;;;;8.20;99.90;;;;;;5033593;28;19958;-70
2021/12/15 01:03:17;;;;;;;;;;;8.10;99.90;;;;;;5033331;28;20008;-69
2021/12/15 01:05:45;;;;;;;;;;;8.20;99.90;;;;;;5033526;28;20376;-70
2021/12/15 01:08:14;;;;;;;;;;;8.20;99.90;;;;;;5033522;28;20443;-70
2021/12/15 01:11:10;;;;;;;;;;;8.20;99.90;;;;;;5033235;28;20542;-70
2021/12/15 01:21:42;;;;;;;;;;;8.20;99.90;;;;;;5033039;28;20421;-70
2021/12/15 01:24:07;;;;;;;;;;;8.20;99.90;;;;;;5033857;28;19905;-70
2021/12/15 01:26:33;;;;;;;;;;;8.20;99.90;;;;;;5033092;28;19913;-70
2021/12/15 01:28:59;;;;;;;;;;;8.20;99.90;;;;;;5033330;28;19909;-69
2021/12/15 01:31:24;;;;;;;;;;;8.20;99.90;;;;;;5032535;28;19908;-70
2021/12/15 01:33:50;;;;;;;;;;;8.30;99.90;;;;;;5033464;28;19912;-70
2021/12/15 01:36:15;;;;;;;;;;;8.20;99.90;;;;;;5033246;28;20326;-70
2021/12/15 01:38:42;;;;;;;;;;;8.20;99.90;;;;;;5033054;28;19917;-69
2021/12/15 01:41:13;;;;;;;;;;;8.20;99.90;;;;;;5032380;28;19952;-70
2021/12/15 01:48:58;;;;;;;;;;;8.20;99.90;;;;;;5033190;28;19995;-70
2021/12/15 01:51:24;;;;;;;;;;;8.20;99.90;;;;;;5031904;28;19909;-70
2021/12/15 01:53:49;;;;;;;;;;;8.20;99.90;;;;;;5033331;28;19905;-70
2021/12/15 01:56:15;;;;;;;;;;;8.20;99.90;;;;;;5032670;28;19931;-70
2021/12/15 01:58:40;;;;;;;;;;;8.20;99.90;;;;;;5033007;28;19912;-69
2021/12/15 02:01:07;;;;;;;;;;;8.20;99.90;;;;;;5031985;28;19909;-70
2021/12/15 02:03:33;;;;;;;;;;;8.20;99.90;;;;;;5032492;28;20004;-69
2021/12/15 02:05:59;;;;;;;;;;;8.20;99.90;;;;;;5032617;28;19951;-70
2021/12/15 02:08:25;;;;;;;;;;;8.20;99.90;;;;;;5032910;28;19915;-70
2021/12/15 02:10:51;;;;;;;;;;;8.20;99.90;;;;;;5031792;28;20579;-70
2021/12/15 02:13:17;;;;;;;;;;;8.20;99.90;;;;;;5049692;28;19916;-70
2021/12/15 02:15:44;;;;;;;;;;;8.20;99.90;;;;;;5032883;28;19909;-70
2021/12/15 02:18:11;;;;;;;;;;;8.20;99.90;;;;;;5032730;28;19909;-70
2021/12/15 02:20:39;;;;;;;;;;;8.20;99.90;;;;;;5031762;28;19947;-70
2021/12/15 02:23:06;;;;;;;;;;;8.20;99.90;;;;;;5032610;28;20022;-70
2021/12/15 02:25:32;;;;;;;;;;;8.20;99.90;;;;;;5031894;28;19913;-70
2021/12/15 02:27:57;;;;;;;;;;;8.30;99.90;;;;;;5032730;28;20375;-70
2021/12/15 02:30:41;;;;;;;;;;;8.30;99.90;;;;;;5031590;28;20356;-70
2021/12/15 02:38:34;;;;;;;;;;;8.30;99.90;;;;;;5032786;28;19978;-70
2021/12/15 02:41:07;;;;;;;;;;;8.30;99.90;;;;;;5031521;28;19993;-70
2021/12/15 02:43:33;;;;;;;;;;;8.30;99.90;;;;;;5032295;28;20299;-70
2021/12/15 02:45:59;;;;;;;;;;;8.30;99.90;;;;;;5032014;28;19917;-70
2021/12/15 02:48:25;;;;;;;;;;;8.40;99.90;;;;;;5032430;28;20375;-70
2021/12/15 02:50:50;;;;;;;;;;;8.30;99.90;;;;;;5031500;28;19905;-70
2021/12/15 02:53:17;;;;;;;;;;;8.30;99.90;;;;;;5031473;28;20000;-70
2021/12/15 02:55:42;;;;;;;;;;;8.30;99.90;;;;;;5031189;28;19917;-70
2021/12/15 02:58:08;;;;;;;;;;;8.30;99.90;;;;;;5032163;28;19909;-70
2021/12/15 03:00:49;;;;;;;;;;;8.40;99.90;;;;;;5030953;28;20471;-69
2021/12/15 03:03:46;;;;;;;;;;;8.30;99.90;;;;;;5032278;28;20016;-70
2021/12/15 03:06:11;;;;;;;;;;;8.40;99.90;;;;;;5023222;28;19909;-70
2021/12/15 03:08:59;;;;;;;;;;;8.40;99.90;;;;;;5031516;28;20331;-70
2021/12/15 03:16:54;;;;;;;;;;;8.40;99.90;;;;;;5023403;28;20390;-69
2021/12/15 03:19:20;;;;;;;;;;;8.40;99.90;;;;;;5035851;28;19909;-69
2021/12/15 03:21:45;;;;;;;;;;;8.40;99.90;;;;;;5035361;28;20538;-70
2021/12/15 03:24:16;;;;;;;;;;;8.40;99.90;;;;;;5035735;28;20416;-70
2021/12/15 03:26:50;;;;;;;;;;;8.40;99.90;;;;;;5035685;28;19919;-70
2021/12/15 03:37:37;;;;;;;;;;;8.50;99.90;;;;;;5032957;28;19909;-70
2021/12/15 03:40:10;;;;;;;;;;;8.50;99.90;;;;;;5034717;28;19917;-70
2021/12/15 03:42:56;;;;;;;;;;;8.50;99.90;;;;;;5035448;28;19917;-70
2021/12/15 03:45:26;;;;;;;;;;;8.40;99.90;;;;;;5035121;28;20356;-70
2021/12/15 03:47:53;;;;;;;;;;;8.50;99.90;;;;;;5035842;28;19905;-70
2021/12/15 03:50:20;;;;;;;;;;;8.50;99.90;;;;;;5034203;28;19913;-70
2021/12/15 03:52:49;;;;;;;;;;;8.50;99.90;;;;;;5035291;28;19927;-69
2021/12/15 03:55:20;;;;;;;;;;;8.40;99.90;;;;;;5035368;28;19909;-70
2021/12/15 03:57:45;;;;;;;;;;;8.50;99.90;;;;;;5035335;28;20276;-70
2021/12/15 04:00:11;;;;;;;;;;;8.50;99.90;;;;;;5034392;28;19909;-70
2021/12/15 04:02:37;;;;;;;;;;;8.50;99.90;;;;;;5037845;28;20363;-69
2021/12/15 04:05:04;;;;;;;;;;;8.50;99.90;;;;;;5035146;28;19966;-70
2021/12/15 04:07:30;;;;;;;;;;;8.50;99.90;;;;;;5054309;28;20284;-70
2021/12/15 04:09:55;;;;;;;;;;;8.50;99.90;;;;;;5049406;28;19905;-70
2021/12/15 04:12:21;;;;;;;;;;;8.50;99.90;;;;;;5044604;28;19913;-70
2021/12/15 04:14:54;;;;;;;;;;;8.50;99.90;;;;;;5047074;28;19916;-70
2021/12/15 04:17:30;;;;;;;;;;;8.50;99.90;;;;;;5046040;28;19995;-70
2021/12/15 04:20:02;;;;;;;;;;;8.60;99.90;;;;;;5034168;28;20410;-70
2021/12/15 04:22:28;;;;;;;;;;;8.60;99.90;;;;;;5034421;28;19917;-70
2021/12/15 04:24:54;;;;;;;;;;;8.60;99.90;;;;;;5032985;28;19996;-70
2021/12/15 04:27:20;;;;;;;;;;;8.60;99.90;;;;;;5034837;28;19909;-69
2021/12/15 04:29:47;;;;;;;;;;;8.60;99.90;;;;;;5034796;28;20351;-70
2021/12/15 04:32:15;;;;;;;;;;;8.60;99.90;;;;;;5033904;28;19912;-69
2021/12/15 04:34:40;;;;;;;;;;;8.60;99.90;;;;;;5034593;28;19905;-69
2021/12/15 04:37:05;;;;;;;;;;;8.70;99.90;;;;;;5034049;28;20276;-70
2021/12/15 04:39:31;;;;;;;;;;;8.70;99.90;;;;;;5034575;28;20356;-69
2021/12/15 04:41:58;;;;;;;;;;;8.70;99.90;;;;;;5037565;28;19916;-69
2021/12/15 04:44:25;;;;;;;;;;;8.70;99.90;;;;;;5040802;28;20268;-69
2021/12/15 04:46:59;;;;;;;;;;;8.70;99.90;;;;;;5034589;28;20659;-70
2021/12/15 04:49:25;;;;;;;;;;;8.70;99.90;;;;;;5034513;28;19973;-69
2021/12/15 04:51:50;;;;;;;;;;;8.70;99.90;;;;;;5039878;28;20399;-69
2021/12/15 04:54:17;;;;;;;;;;;8.70;99.90;;;;;;5039312;28;19913;-69
2021/12/15 04:56:43;;;;;;;;;;;8.70;99.90;;;;;;5034110;28;19912;-69
2021/12/15 04:59:09;;;;;;;;;;;8.70;99.90;;;;;;5034023;28;19909;-69
2021/12/15 05:01:34;;;;;;;;;;;8.70;99.90;;;;;;5033239;28;19927;-69
2021/12/15 05:04:00;;;;;;;;;;;8.70;99.90;;;;;;5034155;28;19909;-69
2021/12/15 05:06:25;;;;;;;;;;;8.70;99.90;;;;;;5034209;28;19905;-69
2021/12/15 05:08:51;;;;;;;;;;;8.70;99.90;;;;;;5033085;28;19921;-69
2021/12/15 05:11:16;;;;;;;;;;;8.70;99.90;;;;;;5033215;28;19909;-69
2021/12/15 05:13:42;;;;;;;;;;;8.70;99.90;;;;;;5035721;28;19909;-69
2021/12/15 05:16:07;;;;;;;;;;;8.70;99.90;;;;;;5034058;28;19912;-69
2021/12/15 05:18:33;;;;;;;;;;;8.70;99.90;;;;;;5034176;28;19995;-69
2021/12/15 05:20:59;;;;;;;;;;;8.70;99.90;;;;;;5033233;28;19947;-69
2021/12/15 05:23:29;;;;;;;;;;;8.70;99.90;;;;;;5033527;28;19921;-69
2021/12/15 05:25:55;;;;;;;;;;;8.70;99.90;;;;;;5033849;28;19951;-69
2021/12/15 05:28:21;;;;;;;;;;;8.70;99.90;;;;;;5032971;28;20288;-69
2021/12/15 05:30:46;;;;;;;;;;;8.70;99.90;;;;;;5032655;28;19940;-69
2021/12/15 05:33:12;;;;;;;;;;;8.80;99.90;;;;;;5039929;28;19952;-69
2021/12/15 05:35:37;;;;;;;;;;;8.80;99.90;;;;;;5033538;28;19905;-69
2021/12/15 05:38:04;;;;;;;;;;;8.80;99.90;;;;;;5033092;28;19996;-69
2021/12/15 05:40:30;;;;;;;;;;;8.80;99.90;;;;;;5031948;28;19909;-69
2021/12/15 05:42:57;;;;;;;;;;;8.80;99.90;;;;;;5033190;28;19913;-69
2021/12/15 05:45:26;;;;;;;;;;;8.80;99.90;;;;;;5033181;28;19909;-69
2021/12/15 05:47:52;;;;;;;;;;;8.80;99.90;;;;;;5033574;28;20399;-69
2021/12/15 05:50:18;;;;;;;;;;;8.80;99.90;;;;;;5033035;28;19917;-69
2021/12/15 05:52:43;;;;;;;;;;;8.80;99.90;;;;;;5033252;28;19905;-69
2021/12/15 05:55:10;;;;;;;;;;;8.80;99.90;;;;;;5032983;28;20417;-69
2021/12/15 05:57:36;;;;;;;;;;;8.80;99.90;;;;;;5033215;28;19999;-70
2021/12/15 06:00:05;;;;;;;;;;;8.70;99.90;;;;;;5032726;28;20355;-69
2021/12/15 06:02:30;;;;;;;;;;;8.70;99.90;;;;;;5041443;28;19962;-69
2021/12/15 06:04:56;;;;;;;;;;;8.70;99.90;;;;;;5048920;28;20344;-69
2021/12/15 06:07:22;;;;;;;;;;;8.70;99.90;;;;;;5033049;28;20000;-70
2021/12/15 06:09:47;;;;;;;;;;;8.70;99.90;;;;;;5033582;28;19905;-70
2021/12/15 06:12:13;;;;;;;;;;;8.70;99.90;;;;;;5032171;28;19952;-70
2021/12/15 06:14:39;;;;;;;;;;;8.60;99.90;;;;;;5040107;28;19905;-70
2021/12/15 06:17:07;;;;;;;;;;;8.60;99.90;;;;;;5042722;28;19920;-69
2021/12/15 06:19:33;;;;;;;;;;;8.60;99.90;;;;;;5050061;28;19953;-70
2021/12/15 06:21:58;;;;;;;;;;;8.60;99.90;;;;;;5042627;28;19913;-70
2021/12/15 06:24:24;;;;;;;;;;;8.60;99.90;;;;;;5031488;28;19911;-70
2021/12/15 06:26:50;;;;;;;;;;;8.60;99.90;;;;;;5031416;28;20008;-70
2021/12/15 06:29:16;;;;;;;;;;;8.60;99.90;;;;;;5032824;28;19959;-69
2021/12/15 06:31:41;;;;;;;;;;;8.60;99.90;;;;;;5031408;28;20004;-70
2021/12/15 06:34:07;;;;;;;;;;;8.60;99.90;;;;;;5032335;28;20443;-69
2021/12/15 06:36:33;;;;;;;;;;;8.60;99.90;;;;;;5040693;28;19909;-69
2021/12/15 06:38:59;;;;;;;;;;;8.70;99.90;;;;;;5052034;28;19915;-69
2021/12/15 06:41:25;;;;;;;;;;;8.70;99.90;;;;;;5031882;28;20328;-69
2021/12/15 06:43:55;;;;;;;;;;;8.60;99.90;;;;;;5032553;28;19996;-69
2021/12/15 06:57:35;;;;;;;;;;;8.70;99.90;;;;;;5032042;28;19915;-70
2021/12/15 07:00:12;;;;;;;;;;;8.60;99.90;;;;;;5038253;28;19955;-69
2021/12/15 07:02:38;;;;;;;;;;;8.60;99.90;;;;;;5038928;28;19917;-69
2021/12/15 07:05:04;;;;;;;;;;;8.60;99.90;;;;;;5038829;28;19996;-69
2021/12/15 07:07:29;;;;;;;;;;;8.60;99.90;;;;;;5038605;28;20007;-69
2021/12/15 07:09:54;;;;;;;;;;;8.60;99.90;;;;;;5038792;28;19909;-69
2021/12/15 07:12:20;;;;;;;;;;;8.60;99.90;;;;;;5037738;28;19956;-69
2021/12/15 07:14:45;;;;;;;;;;;8.70;99.90;;;;;;5043002;28;19963;-69
2021/12/15 07:17:19;;;;;;;;;;;8.60;99.90;;;;;;5038563;28;19909;-69
2021/12/15 07:20:04;;;;;;;;;;;8.60;99.90;;;;;;5038007;28;19944;-70
2021/12/15 07:22:43;;;;;;;;;;;8.60;99.90;;;;;;5038829;28;19920;-69
2021/12/15 07:25:09;;;;;;;;;;;8.60;99.90;;;;;;5038130;28;20416;-69
2021/12/15 07:27:34;;;;;;;;;;;8.60;99.90;;;;;;5038957;28;19916;-70
2021/12/15 07:30:00;;;;;;;;;;;8.60;99.90;;;;;;5037714;28;19913;-69
2021/12/15 07:32:26;;;;;;;;;;;8.60;99.90;;;;;;5038237;28;20367;-69
2021/12/15 07:34:51;;;;;;;;;;;8.60;99.90;;;;;;5038271;28;19912;-69
2021/12/15 07:37:17;;;;;;;;;;;8.60;99.90;;;;;;5037823;28;19924;-69
2021/12/15 07:39:54;;;;;;;;;;;8.60;99.90;;;;;;5038582;28;19932;-69
2021/12/15 07:42:29;;;;;;;;;;;8.60;99.90;;;;;;5037682;28;19952;-69
2021/12/15 07:44:54;;;;;;;;;;;8.60;99.90;;;;;;5038286;28;19928;-69
2021/12/15 07:47:19;;;;;;;;;;;8.60;99.90;;;;;;5038042;28;19909;-69
2021/12/15 07:49:45;;;;;;;;;;;8.60;99.90;;;;;;5037801;28;20007;-70
2021/12/15 07:52:10;;;;;;;;;;;8.60;99.90;;;;;;5035063;28;20003;-69
2021/12/15 07:54:37;;;;;;;;;;;8.60;99.90;;;;;;5030601;28;19988;-70
2021/12/15 07:57:04;;;;;;;;;;;8.60;99.90;;;;;;5037830;28;19905;-70
2021/12/15 07:59:30;;;;;;;;;;;8.70;99.90;;;;;;5036275;28;19905;-69
2021/12/15 08:01:55;;;;;;;;;;;8.70;99.90;;;;;;5034315;28;19919;-70
2021/12/15 08:04:20;;;;;;;;;;;8.70;99.90;;;;;;5035176;28;20306;-70
2021/12/15 08:06:46;;;;;;;;;;;8.70;99.90;;;;;;5034732;28;19912;-70
2021/12/15 08:09:12;;;;;;;;;;;8.70;99.90;;;;;;5035387;28;19905;-69
2021/12/15 08:11:37;;;;;;;;;;;8.70;99.90;;;;;;5034262;28;19913;-69
2021/12/15 08:14:03;;;;;;;;;;;8.70;99.90;;;;;;5040702;28;19909;-70
2021/12/15 08:16:28;;;;;;;;;;;8.70;99.90;;;;;;5035008;28;19905;-70
2021/12/15 08:18:54;;;;;;;;;;;8.70;99.90;;;;;;5034821;28;19916;-69
2021/12/15 08:21:19;;;;;;;;;;;8.70;99.90;;;;;;5036515;28;19979;-69
2021/12/15 08:23:45;;;;;;;;;;;8.70;99.90;;;;;;5034862;28;19913;-69
2021/12/15 08:26:10;;;;;;;;;;;8.60;99.90;;;;;;5034424;28;19971;-69
2021/12/15 08:28:36;;;;;;;;;;;8.70;99.90;;;;;;5034913;28;19992;-70
2021/12/15 08:31:02;;;;;;;;;;;8.70;99.90;;;;;;5033728;28;19909;-69
2021/12/15 08:33:28;;;;;;;;;;;8.70;99.90;;;;;;5035019;28;19944;-69
2021/12/15 08:35:56;;;;;;;;;;;8.70;99.90;;;;;;5034595;28;20481;-70
2021/12/15 08:38:22;;;;;;;;;;;8.70;99.90;;;;;;5034953;28;20275;-70
2021/12/15 08:40:48;;;;;;;;;;;8.70;99.90;;;;;;5033807;28;19909;-69
2021/12/15 08:43:15;;;;;;;;;;;8.70;99.90;;;;;;5034632;28;19909;-69
2021/12/15 08:45:41;;;;;;;;;;;8.60;99.90;;;;;;5039103;28;20003;-69
2021/12/15 08:48:08;;;;;;;;;;;8.60;99.90;;;;;;5034373;28;20371;-70
2021/12/15 08:50:34;;;;;;;;;;;8.70;99.90;;;;;;5033734;28;19913;-70
2021/12/15 08:53:02;;;;;;;;;;;8.70;99.90;;;;;;5034493;28;19905;-70
2021/12/15 08:55:27;;;;;;;;;;;8.70;99.90;;;;;;5034229;28;20322;-70
2021/12/15 08:57:56;;;;;;;;;;;8.70;99.90;;;;;;5034472;28;19963;-69
2021/12/15 09:00:24;;;;;;;;;;;8.70;99.90;;;;;;5033404;28;20392;-70
2021/12/15 09:02:50;;;;;;;;;;;8.70;99.90;;;;;;5034473;28;19909;-70
2021/12/15 09:05:21;;;;;;;;;;;8.70;99.90;;;;;;5034193;28;20289;-69
2021/12/15 09:07:51;;;;;;;;;;;8.70;99.90;;;;;;5034101;28;19905;-70
2021/12/15 09:10:18;;;;;;;;;;;8.70;99.90;;;;;;5033069;28;19944;-69
2021/12/15 09:12:43;;;;;;;;;;;8.70;99.90;;;;;;5033519;28;19996;-70
2021/12/15 09:15:09;;;;;;;;;;;8.70;99.90;;;;;;5039864;28;20368;-69
2021/12/15 09:17:35;;;;;;;;;;;8.80;99.90;;;;;;5034160;28;19962;-69
2021/12/15 09:20:00;;;;;;;;;;;8.70;99.90;;;;;;5033505;28;19996;-69
2021/12/15 09:22:26;;;;;;;;;;;8.80;99.90;;;;;;5033877;28;19920;-70
2021/12/15 09:24:51;;;;;;;;;;;8.80;99.90;;;;;;5039565;28;19924;-69
2021/12/15 09:27:17;;;;;;;;;;;8.80;99.90;;;;;;5040927;28;19905;-69
2021/12/15 09:29:42;;;;;;;;;;;8.80;99.90;;;;;;5033367;28;19909;-69
2021/12/15 09:32:08;;;;;;;;;;;8.80;99.90;;;;;;5032702;28;20004;-69
2021/12/15 09:34:35;;;;;;;;;;;8.80;99.90;;;;;;5037226;28;19909;-69
2021/12/15 09:37:02;;;;;;;;;;;8.90;99.90;;;;;;5033787;28;19974;-69
2021/12/15 09:39:29;;;;;;;;;;;8.90;99.90;;;;;;5033374;28;19909;-69
2021/12/15 09:41:54;;;;;;;;;;;8.90;99.90;;;;;;5032828;28;20285;-69
2021/12/15 09:44:23;;;;;;;;;;;8.90;99.90;;;;;;5033189;28;19913;-69
2021/12/15 10:03:06;;;;;;;;;;;9.10;99.90;;;;;;5032463;28;19978;-69
2021/12/15 10:19:18;;;;;;;;;;;9.20;99.90;;;;;;5053090;28;20415;-69
2021/12/15 10:21:54;;;;;;;;;;;9.10;99.90;;;;;;5034205;28;20389;-69
2021/12/15 10:24:25;;;;;;;;;;;9.20;99.90;;;;;;5032057;28;19920;-70
2021/12/15 10:26:54;;;;;;;;;;;9.20;99.90;;;;;;5032361;28;19913;-69
2021/12/15 10:29:21;;;;;;;;;;;9.20;99.90;;;;;;5032491;28;19909;-69
2021/12/15 10:31:55;;;;;;;;;;;9.20;99.90;;;;;;5032154;28;19939;-69
2021/12/15 10:34:21;;;;;;;;;;;9.20;99.90;;;;;;5032611;28;19905;-69
2021/12/15 10:36:47;;;;;;;;;;;9.20;99.90;;;;;;5031941;28;19920;-69
2021/12/15 10:39:12;;;;;;;;;;;9.10;99.90;;;;;;5032689;28;19905;-69
2021/12/15 10:41:40;;;;;;;;;;;9.20;99.90;;;;;;5031997;28;19905;-69
2021/12/15 10:44:06;;;;;;;;;;;9.20;99.90;;;;;;5032294;28;19917;-69
2021/12/15 10:46:33;;;;;;;;;;;9.20;99.90;;;;;;5043364;28;20368;-69
2021/12/15 10:49:01;;;;;;;;;;;9.20;99.90;;;;;;5032298;28;19909;-69
2021/12/15 10:51:30;;;;;;;;;;;9.20;99.90;;;;;;5037237;28;19915;-69
2021/12/15 10:54:02;;;;;;;;;;;9.20;99.90;;;;;;5032189;28;19909;-69
2021/12/15 10:56:29;;;;;;;;;;;9.20;99.90;;;;;;5032264;28;19916;-69
2021/12/15 10:58:58;;;;;;;;;;;9.30;99.90;;;;;;5032199;28;19920;-69
2021/12/15 11:01:39;;;;;;;;;;;9.30;99.90;;;;;;5031719;28;19905;-69
2021/12/15 11:04:23;;;;;;;;;;;9.30;99.90;;;;;;5038172;28;19916;-69
2021/12/15 11:07:01;;;;;;;;;;;9.30;99.90;;;;;;5033724;28;19909;-69
2021/12/15 11:09:30;;;;;;;;;;;9.30;99.90;;;;;;5040727;28;19909;-69
2021/12/15 11:12:01;;;;;;;;;;;9.30;99.90;;;;;;5031409;28;19913;-69
2021/12/15 11:14:29;;;;;;;;;;;9.30;99.90;;;;;;5032196;28;19963;-69
2021/12/15 11:17:06;;;;;;;;;;;9.30;99.90;;;;;;5032481;28;20269;-69
2021/12/15 11:19:52;;;;;;;;;;;9.30;99.90;;;;;;5031742;28;19917;-69
2021/12/15 11:22:35;;;;;;;;;;;9.40;99.90;;;;;;5031424;28;19909;-69
2021/12/15 11:25:02;;;;;;;;;;;9.40;99.90;;;;;;5031705;28;19916;-69
2021/12/15 11:27:28;;;;;;;;;;;9.40;99.90;;;;;;5031957;28;19909;-69
2021/12/15 11:29:53;;;;;;;;;;;9.40;99.90;;;;;;5032222;28;19912;-69
2021/12/15 11:32:37;;;;;;;;;;;9.40;99.90;;;;;;5030978;28;19916;-69
2021/12/15 11:35:07;;;;;;;;;;;9.50;99.90;;;;;;5034013;28;19916;-69
2021/12/15 11:37:45;;;;;;;;;;;9.50;99.90;;;;;;5035700;28;20007;-69
2021/12/15 11:40:11;;;;;;;;;;;9.50;99.90;;;;;;5046651;28;19915;-69
2021/12/15 11:42:38;;;;;;;;;;;9.50;99.90;;;;;;5047094;28;20388;-69
2021/12/15 11:45:07;;;;;;;;;;;9.50;99.90;;;;;;5035642;28;20383;-69
2021/12/15 11:47:33;;;;;;;;;;;9.50;99.90;;;;;;5046039;28;19913;-69
2021/12/15 11:50:09;;;;;;;;;;;9.50;99.90;;;;;;5035776;28;19916;-69
2021/12/15 11:52:52;;;;;;;;;;;9.50;99.90;;;;;;5035361;28;19909;-69
2021/12/15 11:55:25;;;;;;;;;;;9.50;99.90;;;;;;5035168;28;19975;-69
2021/12/15 11:57:51;;;;;;;;;;;9.40;99.90;;;;;;5045485;28;20494;-69
2021/12/15 12:00:18;;;;;;;;;;;9.50;99.90;;;;;;5054599;28;19905;-69
2021/12/15 12:02:47;;;;;;;;;;;9.50;99.90;;;;;;5041758;28;19920;-69
2021/12/15 12:05:18;;;;;;;;;;;9.50;99.90;;;;;;5039593;28;19912;-68
2021/12/15 12:07:47;;;;;;;;;;;9.50;99.90;;;;;;5041858;28;20418;-69
2021/12/15 12:10:23;;;;;;;;;;;9.60;99.90;;;;;;5034175;28;19916;-69
2021/12/15 12:13:03;;;;;;;;;;;9.50;99.90;;;;;;5036318;28;19916;-69
2021/12/15 12:15:29;;;;;;;;;;;9.50;99.90;;;;;;5036281;28;19999;-69
2021/12/15 12:18:00;;;;;;;;;;;9.60;99.90;;;;;;5034699;28;19912;-69
2021/12/15 12:20:39;;;;;;;;;;;9.50;99.90;;;;;;5034450;28;19916;-69
2021/12/15 12:23:07;;;;;;;;;;;9.50;99.90;;;;;;5034459;28;19916;-69
2021/12/15 12:25:43;;;;;;;;;;;9.50;99.90;;;;;;5026292;28;19928;-69
2021/12/15 12:28:10;;;;;;;;;;;9.60;99.90;;;;;;5034647;28;19905;-69
2021/12/15 12:30:40;;;;;;;;;;;9.60;99.90;;;;;;5043158;28;19913;-69
2021/12/15 12:33:09;;;;;;;;;;;9.60;99.90;;;;;;5034757;28;20283;-69
2021/12/15 12:35:37;;;;;;;;;;;9.60;99.90;;;;;;5034943;28;20385;-69
2021/12/15 12:38:29;;;;;;;;;;;9.60;99.90;;;;;;5042303;28;19916;-69
2021/12/15 12:40:58;;;;;;;;;;;9.70;99.90;;;;;;5039469;28;19952;-69
2021/12/15 12:43:31;;;;;;;;;;;9.70;99.90;;;;;;5034503;28;19948;-69
2021/12/15 12:46:10;;;;;;;;;;;9.70;99.90;;;;;;5033564;28;19959;-68
2021/12/15 12:48:52;;;;;;;;;;;9.70;99.90;;;;;;5034555;28;20000;-69
2021/12/15 12:59:29;;;;;;;;;;;9.80;99.90;;;;;;5023424;28;19963;-69
2021/12/15 13:01:54;;;;;;;;;;;9.80;99.90;;;;;;5032058;28;19905;-69
2021/12/15 13:04:21;;;;;;;;;;;9.80;99.90;;;;;;5030363;28;19920;-68
2021/12/15 13:06:46;;;;;;;;;;;9.70;99.90;;;;;;5033510;28;19917;-69
2021/12/15 13:09:16;;;;;;;;;;;9.80;99.90;;;;;;5032806;28;19909;-68
2021/12/15 13:11:44;;;;;;;;;;;9.70;99.90;;;;;;5032706;28;19909;-69
2021/12/15 13:14:18;;;;;;;;;;;9.70;99.90;;;;;;5032469;28;20500;-69
2021/12/15 13:16:43;;;;;;;;;;;9.70;99.90;;;;;;5033449;28;19953;-69
2021/12/15 13:19:21;;;;;;;;;;;9.80;99.90;;;;;;5032788;28;20569;-69
2021/12/15 13:21:49;;;;;;;;;;;9.70;99.90;;;;;;5028153;28;19980;-69
2021/12/15 13:28:41;;;;;;;;;;;9.70;99.90;;;;;;5032941;28;19921;-69
2021/12/15 13:30:03;;;;;;;;;;;9.70;99.90;;;;;;5032375;28;20435;-69
2021/12/15 13:32:31;;;;;;;;;;;9.70;99.90;;;;;;5033088;28;20004;-69
2021/12/15 13:34:57;;;;;;;;;;;9.70;99.90;;;;;;5033243;28;19920;-69
2021/12/15 13:37:41;;;;;;;;;;;9.70;99.90;;;;;;5032735;28;19913;-69
2021/12/15 13:40:10;;;;;;;;;;;9.60;99.90;;;;;;5031467;28;20408;-69
2021/12/15 13:42:37;;;;;;;;;;;9.60;99.90;;;;;;5032554;28;20012;-69
2021/12/15 13:45:03;;;;;;;;;;;9.60;99.90;;;;;;5037823;28;19913;-69
2021/12/15 13:47:28;;;;;;;;;;;9.70;99.90;;;;;;5032969;28;19928;-69
2021/12/15 13:49:54;;;;;;;;;;;9.60;99.90;;;;;;5032501;28;19908;-69
2021/12/15 13:52:30;;;;;;;;;;;9.70;99.90;;;;;;5031748;28;19909;-69
2021/12/15 13:54:57;;;;;;;;;;;9.60;99.90;;;;;;5032368;28;19920;-69
2021/12/15 13:57:25;;;;;;;;;;;9.70;99.90;;;;;;5025990;28;19909;-69
2021/12/15 13:59:51;;;;;;;;;;;9.70;99.90;;;;;;5032345;28;19913;-69
2021/12/15 14:02:19;;;;;;;;;;;9.70;99.90;;;;;;5034318;28;19919;-69
2021/12/15 14:04:47;;;;;;;;;;;9.70;99.90;;;;;;5032310;28;20008;-69
2021/12/15 14:07:27;;;;;;;;;;;9.60;99.90;;;;;;5032090;28;19909;-69
